createdAt,value
2023-04-21T00:00:40.652Z,16.10
2023-04-21T00:01:43.904Z,16.09
2023-04-21T00:02:48.284Z,15.93
2023-04-21T00:03:51.690Z,15.96
2023-04-21T00:04:56.591Z,15.99
2023-04-21T00:05:59.779Z,15.99
2023-04-21T00:07:04.441Z,15.93
2023-04-21T00:08:07.291Z,15.91
2023-04-21T00:09:11.265Z,15.91
2023-04-21T00:10:14.319Z,15.86
2023-04-21T00:11:17.324Z,15.85
2023-04-21T00:12:20.901Z,15.83
2023-04-21T00:13:24.106Z,15.79
2023-04-21T00:14:27.361Z,15.77
2023-04-21T00:15:30.278Z,15.74
2023-04-21T00:16:33.494Z,15.68
2023-04-21T00:17:36.626Z,15.51
2023-04-21T00:18:39.549Z,15.42
2023-04-21T00:19:42.571Z,15.34
2023-04-21T00:20:45.573Z,15.31
2023-04-21T00:21:48.604Z,15.24
2023-04-21T00:22:52.810Z,15.15
2023-04-21T00:23:55.752Z,15.23
2023-04-21T00:24:58.993Z,15.15
2023-04-21T00:26:03.113Z,15.13
2023-04-21T00:27:06.274Z,15.08
2023-04-21T00:28:09.134Z,15.06
2023-04-21T00:29:14.085Z,15.08
2023-04-21T00:30:17.130Z,15.09
2023-04-21T00:31:20.257Z,15.10
2023-04-21T00:32:23.342Z,15.08
2023-04-21T00:33:27.022Z,15.09
2023-04-21T00:34:31.816Z,15.08
2023-04-21T00:35:34.771Z,15.09
2023-04-21T00:36:37.687Z,15.08
2023-04-21T00:37:42.963Z,15.07
2023-04-21T00:38:47.622Z,15.06
2023-04-21T00:39:51.639Z,15.04
2023-04-21T00:40:55.516Z,14.99
2023-04-21T00:41:58.596Z,14.98
2023-04-21T00:43:01.728Z,14.88
2023-04-21T00:44:09.529Z,14.89
2023-04-21T00:45:15.476Z,14.83
2023-04-21T00:46:18.383Z,14.84
2023-04-21T00:47:21.496Z,14.86
2023-04-21T00:48:26.252Z,14.83
2023-04-21T00:49:29.398Z,14.82
2023-04-21T00:50:33.813Z,14.83
2023-04-21T00:51:37.933Z,14.81
2023-04-21T00:52:43.982Z,15.01
2023-04-21T00:53:47.681Z,15.01
2023-04-21T00:54:51.038Z,15.01
2023-04-21T00:55:53.928Z,15.06
2023-04-21T00:56:58.522Z,15.01
2023-04-21T00:58:04.020Z,15.02
2023-04-21T00:59:06.927Z,15.00
2023-04-21T01:00:10.806Z,14.98
2023-04-21T01:01:14.342Z,14.96
2023-04-21T01:02:22.737Z,14.76
2023-04-21T01:03:25.974Z,14.77
2023-04-21T01:04:35.564Z,14.73
2023-04-21T01:05:39.818Z,14.81
2023-04-21T01:06:43.668Z,14.86
2023-04-21T01:07:46.818Z,14.80
2023-04-21T01:08:53.975Z,14.79
2023-04-21T01:09:56.852Z,14.78
2023-04-21T01:10:59.975Z,14.77
2023-04-21T01:12:10.752Z,14.78
2023-04-21T01:13:14.072Z,14.79
2023-04-21T01:14:16.922Z,14.78
2023-04-21T01:15:20.092Z,14.76
2023-04-21T01:16:24.172Z,14.74
2023-04-21T01:17:31.489Z,14.76
2023-04-21T01:18:36.585Z,14.72
2023-04-21T01:19:42.875Z,14.71
2023-04-21T01:20:46.059Z,14.72
2023-04-21T01:21:49.224Z,14.71
2023-04-21T01:22:52.263Z,14.68
2023-04-21T01:23:55.381Z,14.62
2023-04-21T01:24:58.471Z,14.62
2023-04-21T01:26:01.792Z,14.59
2023-04-21T01:27:09.365Z,14.58
2023-04-21T01:28:12.390Z,14.53
2023-04-21T01:29:17.616Z,14.56
2023-04-21T01:30:20.927Z,14.22
2023-04-21T01:31:27.422Z,14.21
2023-04-21T01:32:31.657Z,14.17
2023-04-21T01:33:35.039Z,14.18
2023-04-21T01:34:40.726Z,14.21
2023-04-21T01:35:43.834Z,14.22
2023-04-21T01:36:46.953Z,14.21
2023-04-21T01:37:50.155Z,14.42
2023-04-21T01:38:55.754Z,14.48
2023-04-21T01:40:05.258Z,14.22
2023-04-21T01:41:09.807Z,14.19
2023-04-21T01:42:13.633Z,14.19
2023-04-21T01:43:21.236Z,14.18
2023-04-21T01:44:26.242Z,14.16
2023-04-21T01:45:29.474Z,14.12
2023-04-21T01:46:32.576Z,14.12
2023-04-21T01:47:35.635Z,14.11
2023-04-21T01:48:38.545Z,14.09
2023-04-21T01:49:42.321Z,14.07
2023-04-21T01:50:45.409Z,14.10
2023-04-21T01:51:48.470Z,14.09
2023-04-21T01:52:51.374Z,14.04
2023-04-21T01:53:54.204Z,14.08
2023-04-21T01:54:57.322Z,14.00
2023-04-21T01:56:00.358Z,14.14
2023-04-21T01:57:04.420Z,14.20
2023-04-21T01:58:07.542Z,14.18
2023-04-21T01:59:10.574Z,14.20
2023-04-21T02:00:14.717Z,14.20
2023-04-21T02:01:20.931Z,14.30
2023-04-21T02:02:23.997Z,14.34
2023-04-21T02:03:27.649Z,14.24
2023-04-21T02:04:30.645Z,14.34
2023-04-21T02:05:33.740Z,14.35
2023-04-21T02:06:36.680Z,14.36
2023-04-21T02:07:40.297Z,14.25
2023-04-21T02:08:43.359Z,14.30
2023-04-21T02:09:46.459Z,14.23
2023-04-21T02:10:51.119Z,14.09
2023-04-21T02:11:57.242Z,14.07
2023-04-21T02:13:01.156Z,14.07
2023-04-21T02:14:05.596Z,14.05
2023-04-21T02:15:09.483Z,14.01
2023-04-21T02:16:14.002Z,13.98
2023-04-21T02:17:17.854Z,13.95
2023-04-21T02:18:21.770Z,13.93
2023-04-21T02:19:24.921Z,13.87
2023-04-21T02:20:27.895Z,13.85
2023-04-21T02:21:32.299Z,13.86
2023-04-21T02:22:35.248Z,14.10
2023-04-21T02:23:39.541Z,14.15
2023-04-21T02:24:42.596Z,14.17
2023-04-21T02:25:45.646Z,14.16
2023-04-21T02:26:48.636Z,14.12
2023-04-21T02:27:51.655Z,14.16
2023-04-21T02:28:54.558Z,14.17
2023-04-21T02:29:57.497Z,14.18
2023-04-21T02:31:00.402Z,14.20
2023-04-21T02:32:14.255Z,14.17
2023-04-21T02:33:25.038Z,14.21
2023-04-21T02:34:28.035Z,14.15
2023-04-21T02:35:33.787Z,14.16
2023-04-21T02:36:36.941Z,14.15
2023-04-21T02:37:39.903Z,14.14
2023-04-21T02:38:42.800Z,14.11
2023-04-21T02:39:46.496Z,14.12
2023-04-21T02:40:50.944Z,14.09
2023-04-21T02:41:54.942Z,14.08
2023-04-21T02:42:57.942Z,14.05
2023-04-21T02:44:01.635Z,14.04
2023-04-21T02:45:04.957Z,13.89
2023-04-21T02:46:09.428Z,13.97
2023-04-21T02:47:12.329Z,13.80
2023-04-21T02:48:15.479Z,13.93
2023-04-21T02:49:18.607Z,13.78
2023-04-21T02:50:21.927Z,13.75
2023-04-21T02:51:25.096Z,13.87
2023-04-21T02:52:28.156Z,13.86
2023-04-21T02:53:31.190Z,13.85
2023-04-21T02:54:34.089Z,13.84
2023-04-21T02:55:37.059Z,13.84
2023-04-21T02:56:40.009Z,13.69
2023-04-21T02:57:42.950Z,13.77
2023-04-21T02:58:45.967Z,13.76
2023-04-21T02:59:48.957Z,13.76
2023-04-21T03:00:52.040Z,13.71
2023-04-21T03:01:55.045Z,13.54
2023-04-21T03:02:58.254Z,13.62
2023-04-21T03:04:01.500Z,13.57
2023-04-21T03:05:04.588Z,13.55
2023-04-21T03:06:07.963Z,13.54
2023-04-21T03:07:14.267Z,13.52
2023-04-21T03:08:17.069Z,13.54
2023-04-21T03:09:20.215Z,13.52
2023-04-21T03:10:23.287Z,13.51
2023-04-21T03:11:26.522Z,13.50
2023-04-21T03:12:29.601Z,13.39
2023-04-21T03:13:32.808Z,13.37
2023-04-21T03:14:36.057Z,13.47
2023-04-21T03:15:39.105Z,13.48
2023-04-21T03:16:42.315Z,13.48
2023-04-21T03:17:45.549Z,13.46
2023-04-21T03:18:48.375Z,13.44
2023-04-21T03:19:51.537Z,13.45
2023-04-21T03:21:01.522Z,13.45
2023-04-21T03:22:04.755Z,13.49
2023-04-21T03:23:07.837Z,13.46
2023-04-21T03:24:10.740Z,13.49
2023-04-21T03:25:13.891Z,13.47
2023-04-21T03:26:16.835Z,13.46
2023-04-21T03:27:19.811Z,13.45
2023-04-21T03:28:22.715Z,13.43
2023-04-21T03:29:25.764Z,13.42
2023-04-21T03:30:28.774Z,13.44
2023-04-21T03:31:31.895Z,13.42
2023-04-21T03:32:34.834Z,13.42
2023-04-21T03:33:37.938Z,13.43
2023-04-21T03:34:41.060Z,13.41
2023-04-21T03:35:43.947Z,13.42
2023-04-21T03:36:46.860Z,13.30
2023-04-21T03:37:52.566Z,13.32
2023-04-21T03:39:05.912Z,13.31
2023-04-21T03:40:16.551Z,13.43
2023-04-21T03:41:19.473Z,13.49
2023-04-21T03:42:22.442Z,13.53
2023-04-21T03:43:25.607Z,13.45
2023-04-21T03:44:28.861Z,13.47
2023-04-21T03:45:31.923Z,13.47
2023-04-21T03:46:35.676Z,13.59
2023-04-21T03:47:38.644Z,13.62
2023-04-21T03:48:41.547Z,13.68
2023-04-21T03:49:44.623Z,13.58
2023-04-21T03:50:47.589Z,13.55
2023-04-21T03:51:50.768Z,13.61
2023-04-21T03:52:53.658Z,13.77
2023-04-21T03:53:56.712Z,13.82
2023-04-21T03:54:59.698Z,13.85
2023-04-21T03:56:02.971Z,13.89
2023-04-21T03:57:05.952Z,13.97
2023-04-21T03:58:08.804Z,14.02
2023-04-21T03:59:11.675Z,14.06
2023-04-21T04:00:14.915Z,14.07
2023-04-21T04:01:17.653Z,14.14
2023-04-21T04:02:20.830Z,14.05
2023-04-21T04:03:24.115Z,14.10
2023-04-21T04:04:27.274Z,14.17
2023-04-21T04:05:30.532Z,14.25
2023-04-21T04:06:34.197Z,14.43
2023-04-21T04:07:37.110Z,14.86
2023-04-21T04:08:40.082Z,15.20
2023-04-21T04:09:43.663Z,15.35
2023-04-21T04:10:46.497Z,15.53
2023-04-21T04:11:49.909Z,16.02
2023-04-21T04:12:52.849Z,16.38
2023-04-21T04:13:55.711Z,16.62
2023-04-21T04:14:58.649Z,16.93
2023-04-21T04:16:01.596Z,17.24
2023-04-21T04:17:04.606Z,17.49
2023-04-21T04:18:07.666Z,17.78
2023-04-21T04:19:10.902Z,18.05
2023-04-21T04:20:13.933Z,18.08
2023-04-21T04:21:16.852Z,18.23
2023-04-21T04:22:19.865Z,18.17
2023-04-21T04:23:23.148Z,18.22
2023-04-21T04:24:26.793Z,18.06
2023-04-21T04:25:29.636Z,18.08
2023-04-21T04:26:38.170Z,18.00
2023-04-21T04:27:41.360Z,17.77
2023-04-21T04:28:44.424Z,17.87
2023-04-21T04:29:49.417Z,17.80
2023-04-21T04:30:53.056Z,17.76
2023-04-21T04:31:58.097Z,17.67
2023-04-21T04:33:01.716Z,17.42
2023-04-21T04:34:04.993Z,17.35
2023-04-21T04:35:09.138Z,17.24
2023-04-21T04:36:13.011Z,17.05
2023-04-21T04:37:16.243Z,17.23
2023-04-21T04:38:19.384Z,17.25
2023-04-21T04:39:22.785Z,17.15
2023-04-21T04:40:26.130Z,17.20
2023-04-21T04:41:33.573Z,17.02
2023-04-21T04:42:36.851Z,16.74
2023-04-21T04:43:39.821Z,16.75
2023-04-21T04:44:42.701Z,16.80
2023-04-21T04:45:46.125Z,16.60
2023-04-21T04:46:49.775Z,16.63
2023-04-21T04:47:52.814Z,16.55
2023-04-21T04:48:55.793Z,16.70
2023-04-21T04:49:58.712Z,16.71
2023-04-21T04:51:02.101Z,16.85
2023-04-21T04:52:05.394Z,16.66
2023-04-21T04:53:08.389Z,16.62
2023-04-21T04:54:11.565Z,16.52
2023-04-21T04:55:14.863Z,16.43
2023-04-21T04:56:17.844Z,16.43
2023-04-21T04:57:21.051Z,16.50
2023-04-21T04:58:24.607Z,16.57
2023-04-21T04:59:29.980Z,16.65
2023-04-21T05:00:33.305Z,16.61
2023-04-21T05:01:38.170Z,16.72
2023-04-21T05:02:41.880Z,16.95
2023-04-21T05:03:46.808Z,16.81
2023-04-21T05:04:51.215Z,16.72
2023-04-21T05:05:54.362Z,16.97
2023-04-21T05:06:57.369Z,16.97
2023-04-21T05:08:00.315Z,17.45
2023-04-21T05:09:04.955Z,17.64
2023-04-21T05:10:08.414Z,17.69
2023-04-21T05:11:11.757Z,18.20
2023-04-21T05:12:14.722Z,18.90
2023-04-21T05:13:18.308Z,19.86
2023-04-21T05:14:21.364Z,20.69
2023-04-21T05:15:24.692Z,21.39
2023-04-21T05:16:27.770Z,22.09
2023-04-21T05:17:31.308Z,22.77
2023-04-21T05:18:34.360Z,23.30
2023-04-21T05:19:37.850Z,23.77
2023-04-21T05:20:44.000Z,24.50
2023-04-21T05:21:46.943Z,25.15
2023-04-21T05:22:49.831Z,25.69
2023-04-21T05:23:52.671Z,25.92
2023-04-21T05:24:55.699Z,26.14
2023-04-21T05:25:59.186Z,26.78
2023-04-21T05:27:03.694Z,27.01
2023-04-21T05:28:06.644Z,27.29
2023-04-21T05:29:09.695Z,27.15
2023-04-21T05:30:12.669Z,27.69
2023-04-21T05:31:15.522Z,27.82
2023-04-21T05:32:18.450Z,27.83
2023-04-21T05:33:22.044Z,28.17
2023-04-21T05:34:24.928Z,28.26
2023-04-21T05:35:30.966Z,28.38
2023-04-21T05:36:33.772Z,28.78
2023-04-21T05:37:36.915Z,28.76
2023-04-21T05:38:39.926Z,28.88
2023-04-21T05:39:43.266Z,29.41
2023-04-21T05:40:56.371Z,29.38
2023-04-21T05:41:59.336Z,29.94
2023-04-21T05:43:02.453Z,30.17
2023-04-21T05:44:05.593Z,30.25
2023-04-21T05:45:08.671Z,29.74
2023-04-21T05:46:11.682Z,29.67
2023-04-21T05:47:14.753Z,29.24
2023-04-21T05:48:17.658Z,29.80
2023-04-21T05:49:20.822Z,30.32
2023-04-21T05:50:24.921Z,30.23
2023-04-21T05:51:28.060Z,30.48
2023-04-21T05:52:30.959Z,30.71
2023-04-21T05:53:33.828Z,30.71
2023-04-21T05:54:36.847Z,31.24
2023-04-21T05:55:39.684Z,31.46
2023-04-21T05:56:42.890Z,31.75
2023-04-21T05:57:46.127Z,32.67
2023-04-21T05:58:49.051Z,32.54
2023-04-21T05:59:51.902Z,32.90
2023-04-21T06:00:54.807Z,33.16
2023-04-21T06:01:57.746Z,33.09
2023-04-21T06:03:01.040Z,33.64
2023-04-21T06:04:04.525Z,33.23
2023-04-21T06:05:08.169Z,33.20
2023-04-21T06:06:11.639Z,33.26
2023-04-21T06:07:15.562Z,33.85
2023-04-21T06:08:19.787Z,34.11
2023-04-21T06:09:22.719Z,34.59
2023-04-21T06:10:26.238Z,34.57
2023-04-21T06:11:29.142Z,34.62
2023-04-21T06:12:32.143Z,35.11
2023-04-21T06:13:37.464Z,35.57
2023-04-21T06:14:41.440Z,35.72
2023-04-21T06:15:44.594Z,35.85
2023-04-21T06:16:47.640Z,36.09
2023-04-21T06:17:57.122Z,35.91
2023-04-21T06:19:01.121Z,36.37
2023-04-21T06:20:04.729Z,36.64
2023-04-21T06:21:07.801Z,36.08
2023-04-21T06:22:10.788Z,35.88
2023-04-21T06:23:14.356Z,35.86
2023-04-21T06:24:24.489Z,36.46
2023-04-21T06:25:27.474Z,36.11
2023-04-21T06:26:30.845Z,36.23
2023-04-21T06:27:33.740Z,36.53
2023-04-21T06:28:39.359Z,36.87
2023-04-21T06:29:43.391Z,37.36
2023-04-21T06:30:46.848Z,37.49
2023-04-21T06:31:50.712Z,38.17
2023-04-21T06:32:53.804Z,38.39
2023-04-21T06:33:56.800Z,38.81
2023-04-21T06:34:59.849Z,38.33
2023-04-21T06:36:02.849Z,39.04
2023-04-21T06:37:05.830Z,39.26
2023-04-21T06:38:09.494Z,39.94
2023-04-21T06:39:12.630Z,39.52
2023-04-21T06:40:18.370Z,40.04
2023-04-21T06:41:22.877Z,39.73
2023-04-21T06:42:27.255Z,40.27
2023-04-21T06:43:31.435Z,40.59
2023-04-21T06:44:34.510Z,40.79
2023-04-21T06:45:37.484Z,40.81
2023-04-21T06:46:43.399Z,40.76
2023-04-21T06:47:46.978Z,41.38
2023-04-21T06:48:50.700Z,41.28
2023-04-21T06:49:53.631Z,41.94
2023-04-21T06:50:56.951Z,41.43
2023-04-21T06:52:00.120Z,41.70
2023-04-21T06:53:02.943Z,42.28
2023-04-21T06:54:06.235Z,41.83
2023-04-21T06:55:09.531Z,41.38
2023-04-21T06:56:12.766Z,40.85
2023-04-21T06:57:17.303Z,41.12
2023-04-21T06:58:21.392Z,41.76
2023-04-21T06:59:24.510Z,42.44
2023-04-21T07:00:27.602Z,41.59
2023-04-21T07:01:30.730Z,42.85
2023-04-21T07:02:34.068Z,43.54
2023-04-21T07:03:37.227Z,43.58
2023-04-21T07:04:40.634Z,44.47
2023-04-21T07:05:43.602Z,44.82
2023-04-21T07:06:47.442Z,44.36
2023-04-21T07:07:50.493Z,44.13
2023-04-21T07:08:53.403Z,44.94
2023-04-21T07:09:56.619Z,44.95
2023-04-21T07:10:59.589Z,45.24
2023-04-21T07:12:03.057Z,45.22
2023-04-21T07:13:08.228Z,45.04
2023-04-21T07:14:12.879Z,44.58
2023-04-21T07:15:16.125Z,44.52
2023-04-21T07:16:18.995Z,44.89
2023-04-21T07:17:21.984Z,45.51
2023-04-21T07:18:25.076Z,45.23
2023-04-21T07:19:28.377Z,44.97
2023-04-21T07:20:31.322Z,45.41
2023-04-21T07:21:36.291Z,45.31
2023-04-21T07:22:39.424Z,46.03
2023-04-21T07:23:42.242Z,45.91
2023-04-21T07:24:45.468Z,46.78
2023-04-21T07:25:48.329Z,47.49
2023-04-21T07:26:51.468Z,47.57
2023-04-21T07:27:54.932Z,47.56
2023-04-21T07:28:58.820Z,47.03
2023-04-21T07:30:01.894Z,48.27
2023-04-21T07:31:05.192Z,48.58
2023-04-21T07:32:08.086Z,48.14
2023-04-21T07:33:11.025Z,48.66
2023-04-21T07:34:14.560Z,48.93
2023-04-21T07:35:17.675Z,48.94
2023-04-21T07:36:21.135Z,48.93
2023-04-21T07:37:24.949Z,49.39
2023-04-21T07:38:28.521Z,49.44
2023-04-21T07:39:31.580Z,48.45
2023-04-21T07:40:34.521Z,48.86
2023-04-21T07:41:37.483Z,49.38
2023-04-21T07:42:40.693Z,50.12
2023-04-21T07:43:43.999Z,50.57
2023-04-21T07:44:47.053Z,50.30
2023-04-21T07:45:52.053Z,50.53
2023-04-21T07:46:55.246Z,50.80
2023-04-21T07:47:59.256Z,50.21
2023-04-21T07:49:17.985Z,50.26
2023-04-21T07:50:21.197Z,50.97
2023-04-21T07:51:25.700Z,50.17
2023-04-21T07:52:28.889Z,50.57
2023-04-21T07:53:32.098Z,51.15
2023-04-21T07:54:35.266Z,50.73
2023-04-21T07:55:38.399Z,48.87
2023-04-21T07:56:41.318Z,48.89
2023-04-21T07:57:44.217Z,-143.95
2023-04-21T07:58:47.121Z,-143.95
2023-04-21T07:59:50.414Z,-143.95
2023-04-21T08:00:53.347Z,-143.95
2023-04-21T08:01:56.623Z,-143.95
2023-04-21T08:02:59.844Z,-143.95
2023-04-21T08:04:03.042Z,-143.95
2023-04-21T08:05:06.787Z,-143.95
2023-04-21T08:06:09.894Z,-143.95
2023-04-21T08:07:14.900Z,-143.95
2023-04-21T08:08:20.479Z,-143.95
2023-04-21T08:09:23.631Z,-143.95
2023-04-21T08:10:26.655Z,-143.95
2023-04-21T08:11:29.612Z,-143.95
2023-04-21T08:12:32.682Z,-143.95
2023-04-21T08:13:36.181Z,-143.95
2023-04-21T08:14:40.666Z,-143.95
2023-04-21T08:15:43.575Z,-143.95
2023-04-21T08:16:46.753Z,-143.95
2023-04-21T08:17:49.778Z,-143.95
2023-04-21T08:18:52.826Z,-143.95
2023-04-21T08:19:56.611Z,-143.95
2023-04-21T08:21:00.998Z,-143.95
2023-04-21T08:22:03.946Z,-143.95
2023-04-21T08:23:06.856Z,-143.95
2023-04-21T08:24:09.940Z,-143.95
2023-04-21T08:25:13.131Z,-143.95
2023-04-21T08:26:16.264Z,-143.95
2023-04-21T08:27:19.163Z,-143.95
2023-04-21T08:28:22.093Z,-143.95
2023-04-21T08:29:25.082Z,-143.95
2023-04-21T08:30:29.127Z,-143.95
2023-04-21T08:31:32.207Z,-143.95
2023-04-21T08:32:35.402Z,-143.95
2023-04-21T08:33:46.736Z,-143.95
2023-04-21T08:34:54.892Z,-143.95
2023-04-21T08:36:05.624Z,-143.95
2023-04-21T08:37:10.792Z,-143.95
2023-04-21T08:38:13.625Z,-143.95
2023-04-21T08:39:17.041Z,-143.95
2023-04-21T08:40:20.370Z,-143.95
2023-04-21T08:41:24.398Z,-143.95
2023-04-21T08:42:27.438Z,-143.95
2023-04-21T08:43:30.721Z,-143.95
2023-04-21T08:44:33.674Z,-143.95
2023-04-21T08:45:36.993Z,-143.95
2023-04-21T08:46:41.006Z,-143.95
2023-04-21T08:47:44.720Z,-143.95
2023-04-21T08:48:48.561Z,-143.95
2023-04-21T08:49:54.288Z,-143.95
2023-04-21T08:50:58.261Z,-143.95
2023-04-21T08:52:01.375Z,-143.95
2023-04-21T08:53:04.411Z,-143.95
2023-04-21T08:54:08.180Z,-143.95
2023-04-21T08:55:13.585Z,-143.95
2023-04-21T08:56:16.649Z,-143.95
2023-04-21T08:57:20.009Z,-143.95
2023-04-21T08:58:23.720Z,-143.95
2023-04-21T08:59:26.640Z,-143.95
2023-04-21T09:00:29.528Z,-143.95
2023-04-21T09:01:32.632Z,-143.95
2023-04-21T09:03:02.176Z,-143.95
2023-04-21T09:04:18.872Z,-143.95
2023-04-21T09:05:31.573Z,-143.95
2023-04-21T09:06:46.179Z,-143.95
2023-04-21T09:07:49.610Z,-143.95
2023-04-21T09:08:56.454Z,-143.95
2023-04-21T09:10:03.304Z,-143.95
2023-04-21T09:11:06.774Z,-143.95
2023-04-21T09:12:09.576Z,-143.95
2023-04-21T09:13:13.754Z,-143.95
2023-04-21T09:14:20.570Z,-143.95
2023-04-21T09:15:23.664Z,-143.95
2023-04-21T09:16:35.286Z,-143.95
2023-04-21T09:17:38.726Z,-143.95
2023-04-21T09:18:44.304Z,-143.95
2023-04-21T09:19:47.372Z,-143.95
2023-04-21T09:21:05.864Z,-143.95
2023-04-21T09:22:08.804Z,-143.95
2023-04-21T09:23:12.344Z,-143.95
2023-04-21T09:24:15.422Z,-143.95
2023-04-21T09:25:20.870Z,-143.95
2023-04-21T09:26:24.122Z,-143.95
2023-04-21T09:27:27.404Z,-143.95
2023-04-21T09:28:32.910Z,-143.95
2023-04-21T09:29:36.060Z,-143.95
2023-04-21T09:30:41.952Z,-143.95
2023-04-21T09:31:45.363Z,-143.95
2023-04-21T09:32:48.850Z,-143.95
2023-04-21T09:33:59.585Z,-143.95
2023-04-21T09:35:04.271Z,-143.95
2023-04-21T09:36:07.543Z,-143.95
2023-04-21T09:37:12.792Z,-143.95
2023-04-21T09:38:16.795Z,-143.95
2023-04-21T09:39:38.274Z,-143.95
2023-04-21T09:40:56.598Z,-143.95
2023-04-21T09:41:59.752Z,-143.95
2023-04-21T09:43:02.768Z,-143.95
2023-04-21T09:44:05.955Z,-143.95
2023-04-21T09:45:32.429Z,-143.95
2023-04-21T09:46:35.869Z,-143.95
2023-04-21T09:47:42.866Z,-143.95
2023-04-21T09:48:47.966Z,-143.95
2023-04-21T09:49:54.780Z,-143.95
2023-04-21T09:53:17.193Z,-143.95
2023-04-21T09:55:30.999Z,-143.95
2023-04-21T09:56:40.667Z,-143.95
2023-04-21T09:57:46.822Z,-143.95
2023-04-21T09:58:58.618Z,-143.95
2023-04-21T10:00:09.804Z,-143.95
2023-04-21T10:01:14.414Z,-143.95
2023-04-21T10:02:20.313Z,-143.95
2023-04-21T10:03:28.870Z,-143.95
2023-04-21T10:04:33.947Z,-143.95
2023-04-21T10:05:42.099Z,-143.95
2023-04-21T10:06:48.209Z,-143.95
2023-04-21T10:07:51.297Z,-143.95
2023-04-21T10:08:57.837Z,-143.95
2023-04-21T10:10:01.696Z,-143.95
2023-04-21T10:11:05.868Z,-143.95
2023-04-21T10:12:10.167Z,-143.95
2023-04-21T10:13:18.660Z,-143.95
2023-04-21T10:14:22.079Z,-143.95
2023-04-21T10:15:38.789Z,-143.95
2023-04-21T10:16:43.635Z,-143.95
2023-04-21T10:17:47.456Z,-143.95
2023-04-21T10:18:51.193Z,-143.95
2023-04-21T10:19:58.769Z,-143.95
2023-04-21T10:21:22.151Z,-143.95
2023-04-21T10:22:35.701Z,-143.95
2023-04-21T10:23:43.500Z,-143.95
2023-04-21T10:24:48.426Z,-143.95
2023-04-21T10:25:51.702Z,-143.95
2023-04-21T10:26:56.870Z,-143.95
2023-04-21T10:27:59.749Z,-143.95
2023-04-21T10:29:06.437Z,-143.95
2023-04-21T10:30:26.147Z,-143.95
2023-04-21T10:31:36.454Z,-143.95
2023-04-21T10:32:43.418Z,-143.95
2023-04-21T10:34:07.797Z,-143.95
2023-04-21T10:35:23.428Z,-143.95
2023-04-21T10:36:26.450Z,-143.95
2023-04-21T10:37:31.959Z,-143.95
2023-04-21T10:38:44.494Z,-143.95
2023-04-21T10:39:54.768Z,-143.95
2023-04-21T10:41:28.847Z,-143.95
2023-04-21T10:42:37.106Z,-143.95
2023-04-21T10:43:48.489Z,-143.95
2023-04-21T10:44:57.756Z,-143.95
2023-04-21T10:46:20.804Z,-143.95
2023-04-21T10:47:41.224Z,-143.95
2023-04-21T10:48:53.086Z,-143.95
2023-04-21T10:50:00.781Z,-143.95
2023-04-21T10:51:05.062Z,-143.95
2023-04-21T10:52:09.945Z,-143.95
2023-04-21T10:53:14.481Z,-143.95
2023-04-21T10:54:17.569Z,-143.95
2023-04-21T10:55:22.496Z,-143.95
2023-04-21T10:56:26.323Z,-143.95
2023-04-21T10:57:33.743Z,-143.95
2023-04-21T10:58:38.477Z,-143.95
2023-04-21T10:59:42.238Z,-143.95
2023-04-21T11:00:45.606Z,-143.95
2023-04-21T11:01:48.829Z,-143.95
2023-04-21T11:03:03.920Z,-143.95
2023-04-21T11:04:07.347Z,-143.95
2023-04-21T11:05:11.389Z,-143.95
2023-04-21T11:06:17.939Z,-143.95
2023-04-21T11:07:25.271Z,-143.95
2023-04-21T11:08:28.162Z,-143.95
2023-04-21T11:09:31.810Z,-143.95
2023-04-21T11:10:56.350Z,-143.95
2023-04-21T11:12:16.183Z,-143.95
2023-04-21T11:13:25.402Z,-143.95
2023-04-21T11:14:29.274Z,-143.95
2023-04-21T11:15:32.317Z,-143.95
2023-04-21T11:16:36.974Z,-143.95
2023-04-21T11:17:43.351Z,-143.95
2023-04-21T11:18:46.596Z,-143.95
2023-04-21T11:19:55.965Z,-143.95
2023-04-21T11:21:18.613Z,-143.95
2023-04-21T11:22:24.257Z,-143.95
2023-04-21T11:23:27.256Z,-143.95
2023-04-21T11:24:31.034Z,-143.95
2023-04-21T11:25:34.088Z,-143.95
2023-04-21T11:26:53.401Z,-143.95
2023-04-21T11:28:00.037Z,-143.95
2023-04-21T11:29:06.188Z,-143.95
2023-04-21T11:30:10.288Z,-143.95
2023-04-21T11:31:13.610Z,-143.95
2023-04-21T11:32:17.758Z,-143.95
2023-04-21T11:33:20.833Z,-143.95
2023-04-21T11:34:25.489Z,-143.95
2023-04-21T11:35:28.609Z,-143.95
2023-04-21T11:36:45.962Z,-143.95
2023-04-21T11:37:52.130Z,-143.95
2023-04-21T11:38:54.988Z,-143.95
2023-04-21T11:40:00.530Z,-143.95
2023-04-21T11:41:03.742Z,-143.95
2023-04-21T11:42:06.664Z,-143.95
2023-04-21T11:43:09.529Z,-143.95
2023-04-21T11:44:13.845Z,-143.95
2023-04-21T11:45:22.342Z,-143.95
2023-04-21T11:46:28.818Z,-143.95
2023-04-21T11:47:31.952Z,-143.95
2023-04-21T11:48:35.202Z,-143.95
2023-04-21T11:49:49.350Z,-143.95
2023-04-21T11:50:52.416Z,-143.95
2023-04-21T11:51:56.569Z,-143.95
2023-04-21T11:53:02.175Z,-143.95
2023-04-21T11:54:07.841Z,-143.95
2023-04-21T11:55:16.397Z,-143.95
2023-04-21T11:56:22.463Z,-143.95
2023-04-21T11:57:30.026Z,-143.95
2023-04-21T11:58:33.103Z,-143.95
2023-04-21T11:59:36.143Z,-143.95
2023-04-21T12:00:39.242Z,-143.95
2023-04-21T12:01:50.860Z,-143.95
2023-04-21T12:02:57.319Z,-143.95
2023-04-21T12:04:01.495Z,-143.95
2023-04-21T12:05:13.720Z,-143.95
2023-04-21T12:06:28.784Z,-143.95
2023-04-21T12:07:34.154Z,-143.95
2023-04-21T12:08:37.177Z,-143.95
2023-04-21T12:09:40.255Z,-143.95
2023-04-21T12:10:47.281Z,-143.95
2023-04-21T12:11:53.065Z,-143.95
2023-04-21T12:12:57.233Z,-143.95
2023-04-21T12:14:01.233Z,-143.95
2023-04-21T12:15:04.618Z,-143.95
2023-04-21T12:16:07.714Z,-143.95
2023-04-21T12:17:10.692Z,-143.95
2023-04-21T12:18:14.502Z,-143.95
2023-04-21T12:19:40.429Z,-143.95
2023-04-21T12:20:53.509Z,-143.95
2023-04-21T12:21:56.862Z,-143.95
2023-04-21T12:23:01.185Z,-143.95
2023-04-21T12:24:04.348Z,-143.95
2023-04-21T12:25:08.982Z,-143.95
2023-04-21T12:26:12.511Z,-143.95
2023-04-21T12:27:15.997Z,-143.95
2023-04-21T12:28:19.164Z,-143.95
2023-04-21T12:29:22.199Z,-143.95
2023-04-21T12:30:25.377Z,-143.95
2023-04-21T12:31:28.345Z,-143.95
2023-04-21T12:32:31.595Z,-143.95
2023-04-21T12:33:34.919Z,-143.95
2023-04-21T12:34:37.987Z,-143.95
2023-04-21T12:35:40.981Z,-143.95
2023-04-21T12:36:43.909Z,-143.95
2023-04-21T12:37:46.845Z,-143.95
2023-04-21T12:38:50.037Z,-143.95
2023-04-21T12:39:52.874Z,-143.95
2023-04-21T12:40:55.746Z,-143.95
2023-04-21T12:41:58.847Z,-143.95
2023-04-21T12:43:01.756Z,-143.95
2023-04-21T12:44:04.720Z,-143.95
2023-04-21T12:45:08.488Z,-143.95
2023-04-21T12:46:12.568Z,-143.95
2023-04-21T12:47:15.727Z,-143.95
2023-04-21T12:48:22.167Z,-143.95
2023-04-21T12:49:26.064Z,-143.95
2023-04-21T12:50:29.195Z,-143.95
2023-04-21T12:51:32.292Z,-143.95
2023-04-21T12:52:35.228Z,-143.95
2023-04-21T12:53:38.225Z,-143.95
2023-04-21T12:54:42.069Z,-143.95
2023-04-21T12:55:53.223Z,-143.95
2023-04-21T12:57:04.531Z,-143.95
2023-04-21T12:58:10.992Z,-143.95
2023-04-21T12:59:14.890Z,-143.95
2023-04-21T13:00:17.941Z,-143.95
2023-04-21T13:01:25.032Z,-143.95
2023-04-21T13:02:28.466Z,-143.95
2023-04-21T13:03:31.816Z,-143.95
2023-04-21T13:04:35.896Z,-143.95
2023-04-21T13:05:38.934Z,-143.95
2023-04-21T13:06:41.948Z,-143.95
2023-04-21T13:07:44.987Z,-143.95
2023-04-21T13:08:50.340Z,-143.95
2023-04-21T13:09:53.312Z,-143.95
2023-04-21T13:10:56.264Z,-143.95
2023-04-21T13:11:59.151Z,-143.95
2023-04-21T13:13:02.043Z,-143.95
2023-04-21T13:14:04.912Z,-143.95
2023-04-21T13:15:08.853Z,-143.95
2023-04-21T13:16:11.821Z,-143.95
2023-04-21T13:17:16.678Z,-143.95
2023-04-21T13:18:19.739Z,-143.95
2023-04-21T13:19:22.826Z,-143.95
2023-04-21T13:20:26.119Z,-143.95
2023-04-21T13:21:29.131Z,-143.95
2023-04-21T13:22:31.976Z,-143.95
2023-04-21T13:23:34.896Z,-143.95
2023-04-21T13:24:37.887Z,-143.95
2023-04-21T13:25:41.419Z,-143.95
2023-04-21T13:26:44.495Z,-143.95
2023-04-21T13:27:47.871Z,-143.95
2023-04-21T13:28:51.038Z,-143.95
2023-04-21T13:29:54.447Z,-143.95
2023-04-21T13:30:58.247Z,-143.95
2023-04-21T13:32:03.413Z,-143.95
2023-04-21T13:33:06.466Z,-143.95
2023-04-21T13:34:09.440Z,-143.95
2023-04-21T13:35:12.670Z,-143.95